« Back
NWS Peachtree City, Ga » Text Product » MCN Terminal Aerodrome Forecast


Printer-friendly Version
Current Version              Previous Versions:   1  2  3  4  5  6  7  8  9  

Terminal Aerodrome Forecast

042
FTUS42 KFFC 270549
TAFMCN
TAF
KMCN 270549Z 2706/2806 21004KT P6SM SKC
     FM271600 25007KT P6SM SCT060=

USA.gov is the U.S. government's official web portal to all federal, state and local government web resources and services.